createdAt,value
2018-08-22T00:00:18.657Z,5.43
2018-08-22T00:01:22.145Z,5.30
2018-08-22T00:02:25.577Z,5.20
2018-08-22T00:03:29.106Z,4.87
2018-08-22T00:04:32.585Z,4.60
2018-08-22T00:05:36.100Z,4.93
2018-08-22T00:06:39.565Z,5.10
2018-08-22T00:07:43.097Z,5.50
2018-08-22T00:08:46.653Z,5.80
2018-08-22T00:09:50.103Z,5.60
2018-08-22T00:10:53.676Z,5.03
2018-08-22T00:11:57.255Z,5.10
2018-08-22T00:13:00.732Z,4.43
2018-08-22T00:14:04.313Z,5.53
2018-08-22T00:15:07.803Z,5.20
2018-08-22T00:16:11.277Z,5.40
2018-08-22T00:17:14.820Z,4.70
2018-08-22T00:18:18.359Z,5.27
2018-08-22T00:19:21.804Z,4.90
2018-08-22T00:20:25.253Z,5.17
2018-08-22T00:21:28.698Z,5.20
2018-08-22T00:22:32.236Z,5.77
2018-08-22T00:23:35.657Z,5.10
2018-08-22T00:24:39.157Z,4.93
2018-08-22T00:25:42.671Z,5.53
2018-08-22T00:26:46.168Z,5.20
2018-08-22T00:27:49.636Z,5.70
2018-08-22T00:28:53.125Z,5.10
2018-08-22T00:29:56.653Z,5.40
2018-08-22T00:31:00.456Z,5.10
2018-08-22T00:32:04.008Z,5.03
2018-08-22T00:33:07.448Z,5.60
2018-08-22T00:34:10.927Z,5.13
2018-08-22T00:35:14.461Z,5.00
2018-08-22T00:36:17.976Z,5.67
2018-08-22T00:37:21.524Z,5.33
2018-08-22T00:38:24.948Z,5.67
2018-08-22T00:39:28.413Z,5.30
2018-08-22T00:40:31.865Z,5.10
2018-08-22T00:41:35.388Z,4.60
2018-08-22T00:42:38.889Z,4.33
2018-08-22T00:43:42.359Z,5.30
2018-08-22T00:44:45.973Z,5.33
2018-08-22T00:45:49.436Z,5.53
2018-08-22T00:46:52.944Z,5.00
2018-08-22T00:47:56.421Z,4.23
2018-08-22T00:48:59.897Z,4.50
2018-08-22T00:50:03.404Z,4.53
2018-08-22T00:51:06.885Z,4.97
2018-08-22T00:52:10.412Z,5.10
2018-08-22T00:53:13.977Z,5.07
2018-08-22T00:54:17.441Z,5.07
2018-08-22T00:55:20.929Z,6.00
2018-08-22T00:56:24.565Z,5.20
2018-08-22T00:57:28.036Z,5.27
2018-08-22T00:58:31.627Z,5.30
2018-08-22T00:59:35.098Z,5.00
2018-08-22T01:00:38.677Z,4.87
2018-08-22T01:01:42.173Z,5.13
2018-08-22T01:02:45.677Z,5.80
2018-08-22T01:03:49.188Z,5.03
2018-08-22T01:04:52.624Z,5.10
2018-08-22T01:05:56.121Z,5.03
2018-08-22T01:06:59.613Z,5.83
2018-08-22T01:08:03.109Z,4.40
2018-08-22T01:09:07.833Z,4.90
2018-08-22T01:10:11.291Z,5.20
2018-08-22T01:11:14.798Z,4.93
2018-08-22T01:12:18.264Z,4.70
2018-08-22T01:13:21.784Z,4.97
2018-08-22T01:14:25.247Z,5.07
2018-08-22T01:15:28.736Z,5.10
2018-08-22T01:16:32.226Z,4.80
2018-08-22T01:17:35.818Z,4.70
2018-08-22T01:18:39.418Z,4.93
2018-08-22T01:19:42.911Z,4.90
2018-08-22T01:20:46.364Z,5.00
2018-08-22T01:21:49.888Z,5.20
2018-08-22T01:22:53.348Z,4.87
2018-08-22T01:23:56.896Z,4.40
2018-08-22T01:25:00.452Z,4.90
2018-08-22T01:26:03.989Z,4.40
2018-08-22T01:27:07.680Z,5.10
2018-08-22T01:28:11.190Z,5.40
2018-08-22T01:29:14.706Z,5.60
2018-08-22T01:30:18.309Z,5.20
2018-08-22T01:31:21.736Z,5.30
2018-08-22T01:32:25.291Z,4.43
2018-08-22T01:33:28.864Z,4.83
2018-08-22T01:34:32.357Z,5.10
2018-08-22T01:35:35.843Z,5.07
2018-08-22T01:36:39.322Z,5.80
2018-08-22T01:37:42.806Z,4.83
2018-08-22T01:38:46.293Z,5.53
2018-08-22T01:39:49.998Z,5.03
2018-08-22T01:40:53.467Z,4.80
2018-08-22T01:41:57.072Z,5.20
2018-08-22T01:43:00.548Z,4.43
2018-08-22T01:44:04.029Z,5.20
2018-08-22T01:45:07.517Z,4.93
2018-08-22T01:46:11.033Z,4.87
2018-08-22T01:47:14.512Z,4.47
2018-08-22T01:48:17.987Z,5.50
2018-08-22T01:49:21.449Z,4.70
2018-08-22T01:50:25.087Z,4.50
2018-08-22T01:51:28.689Z,4.80
2018-08-22T01:52:32.137Z,4.70
2018-08-22T01:53:35.633Z,4.80
2018-08-22T01:54:39.092Z,4.67
2018-08-22T01:55:42.549Z,4.50
2018-08-22T01:56:46.121Z,4.90
2018-08-22T01:57:49.600Z,4.73
2018-08-22T01:58:53.152Z,5.27
2018-08-22T01:59:56.638Z,4.63
2018-08-22T02:01:00.185Z,5.50
2018-08-22T02:02:03.777Z,4.60
2018-08-22T02:03:07.337Z,5.00
2018-08-22T02:04:10.829Z,4.93
2018-08-22T02:05:14.306Z,4.60
2018-08-22T02:06:17.777Z,4.90
2018-08-22T02:07:21.233Z,4.40
2018-08-22T02:08:24.825Z,4.40
2018-08-22T02:09:28.380Z,4.90
2018-08-22T02:10:31.841Z,4.60
2018-08-22T02:11:35.352Z,5.10
2018-08-22T02:12:38.843Z,5.07
2018-08-22T02:13:42.348Z,5.03
2018-08-22T02:14:45.806Z,5.00
2018-08-22T02:15:49.718Z,5.17
2018-08-22T02:16:53.209Z,5.23
2018-08-22T02:17:56.656Z,4.93
2018-08-22T02:19:00.169Z,5.57
2018-08-22T02:20:03.677Z,4.47
2018-08-22T02:21:07.255Z,5.20
2018-08-22T02:22:10.889Z,5.00
2018-08-22T02:23:14.420Z,5.00
2018-08-22T02:24:17.910Z,5.50
2018-08-22T02:25:21.415Z,4.60
2018-08-22T02:26:24.910Z,5.43
2018-08-22T02:27:28.362Z,4.50
2018-08-22T02:28:31.894Z,4.60
2018-08-22T02:29:35.449Z,5.03
2018-08-22T02:30:38.929Z,4.60
2018-08-22T02:31:42.433Z,4.80
2018-08-22T02:32:45.933Z,5.03
2018-08-22T02:33:49.533Z,4.87
2018-08-22T02:34:52.984Z,4.63
2018-08-22T02:35:56.413Z,4.80
2018-08-22T02:36:59.862Z,4.60
2018-08-22T02:38:03.366Z,4.70
2018-08-22T02:39:08.401Z,5.30
2018-08-22T02:40:11.856Z,5.00
2018-08-22T02:41:15.297Z,5.60
2018-08-22T02:42:18.746Z,4.93
2018-08-22T02:43:22.246Z,4.73
2018-08-22T02:44:25.730Z,4.80
2018-08-22T02:45:29.200Z,5.47
2018-08-22T02:46:32.697Z,4.93
2018-08-22T02:47:36.176Z,5.00
2018-08-22T02:48:44.840Z,5.07
2018-08-22T02:49:48.394Z,4.20
2018-08-22T02:50:51.869Z,4.67
2018-08-22T02:51:55.396Z,4.50
2018-08-22T02:52:58.850Z,4.20
2018-08-22T02:54:03.265Z,4.83
2018-08-22T02:55:06.728Z,4.23
2018-08-22T02:56:10.267Z,4.83
2018-08-22T02:57:13.834Z,4.63
2018-08-22T02:58:17.301Z,4.87
2018-08-22T02:59:20.801Z,4.50
2018-08-22T03:00:24.229Z,4.77
2018-08-22T03:01:27.679Z,4.30
2018-08-22T03:02:31.131Z,5.30
2018-08-22T03:03:34.561Z,4.43
2018-08-22T03:04:38.044Z,4.80
2018-08-22T03:05:41.571Z,4.30
2018-08-22T03:06:45.110Z,4.23
2018-08-22T03:07:48.613Z,5.00
2018-08-22T03:08:52.079Z,4.40
2018-08-22T03:09:55.578Z,4.53
2018-08-22T03:10:59.070Z,3.67
2018-08-22T03:12:02.521Z,5.10
2018-08-22T03:13:05.969Z,5.20
2018-08-22T03:14:09.558Z,4.60
2018-08-22T03:15:13.022Z,4.20
2018-08-22T03:16:16.525Z,5.43
2018-08-22T03:17:20.092Z,4.43
2018-08-22T03:18:23.925Z,4.57
2018-08-22T03:19:27.510Z,4.77
2018-08-22T03:20:30.978Z,4.93
2018-08-22T03:21:34.810Z,4.63
2018-08-22T03:22:38.244Z,5.03
2018-08-22T03:23:41.737Z,5.00
2018-08-22T03:24:45.228Z,5.57
2018-08-22T03:25:49.013Z,4.80
2018-08-22T03:26:52.780Z,4.83
2018-08-22T03:27:56.327Z,4.67
2018-08-22T03:28:59.788Z,4.03
2018-08-22T03:30:03.620Z,5.00
2018-08-22T03:31:07.185Z,4.80
2018-08-22T03:32:10.661Z,3.73
2018-08-22T03:33:14.165Z,4.53
2018-08-22T03:34:17.739Z,5.00
2018-08-22T03:35:21.237Z,4.60
2018-08-22T03:36:24.694Z,4.73
2018-08-22T03:37:28.237Z,4.43
2018-08-22T03:38:31.810Z,5.50
2018-08-22T03:39:35.269Z,4.50
2018-08-22T03:40:38.765Z,4.83
2018-08-22T03:41:42.373Z,5.10
2018-08-22T03:42:45.850Z,4.53
2018-08-22T03:43:49.321Z,5.07
2018-08-22T03:44:52.814Z,4.43
2018-08-22T03:45:56.249Z,5.10
2018-08-22T03:46:59.848Z,4.60
2018-08-22T03:48:03.410Z,5.07
2018-08-22T03:49:06.865Z,4.40
2018-08-22T03:50:10.297Z,4.73
2018-08-22T03:51:13.866Z,5.47
2018-08-22T03:52:17.377Z,4.43
2018-08-22T03:53:20.949Z,4.53
2018-08-22T03:54:24.565Z,5.03
2018-08-22T03:55:28.002Z,4.37
2018-08-22T03:56:31.540Z,4.50
2018-08-22T03:57:35.109Z,4.97
2018-08-22T03:58:38.589Z,4.57
2018-08-22T03:59:42.053Z,4.87
2018-08-22T04:00:45.893Z,4.83
2018-08-22T04:01:49.444Z,4.60
2018-08-22T04:02:52.962Z,4.70
2018-08-22T04:03:56.438Z,5.10
2018-08-22T04:04:59.930Z,3.93
2018-08-22T04:06:03.393Z,4.70
2018-08-22T04:07:06.885Z,4.53
2018-08-22T04:08:10.403Z,4.33
2018-08-22T04:09:13.954Z,4.90
2018-08-22T04:10:17.441Z,4.30
2018-08-22T04:11:20.933Z,5.13
2018-08-22T04:12:24.385Z,4.83
2018-08-22T04:13:27.853Z,4.80
2018-08-22T04:14:31.417Z,4.30
2018-08-22T04:15:34.885Z,4.13
2018-08-22T04:16:38.377Z,4.23
2018-08-22T04:17:41.983Z,4.83
2018-08-22T04:18:45.492Z,4.17
2018-08-22T04:19:48.989Z,4.40
2018-08-22T04:20:52.539Z,5.20
2018-08-22T04:21:56.020Z,4.43
2018-08-22T04:22:59.513Z,4.80
2018-08-22T04:24:03.017Z,4.27
2018-08-22T04:25:06.942Z,4.33
2018-08-22T04:26:10.393Z,4.50
2018-08-22T04:27:13.889Z,4.57
2018-08-22T04:28:17.329Z,4.53
2018-08-22T04:29:20.869Z,4.70
2018-08-22T04:30:24.325Z,4.40
2018-08-22T04:31:27.826Z,4.50
2018-08-22T04:32:31.267Z,4.57
2018-08-22T04:33:34.714Z,4.43
2018-08-22T04:34:38.201Z,4.50
2018-08-22T04:35:41.686Z,4.53
2018-08-22T04:36:45.124Z,4.33
2018-08-22T04:37:48.825Z,4.80
2018-08-22T04:38:52.355Z,3.93
2018-08-22T04:39:55.941Z,4.67
2018-08-22T04:40:59.434Z,4.50
2018-08-22T04:42:02.924Z,4.00
2018-08-22T04:43:06.608Z,4.40
2018-08-22T04:44:10.077Z,4.57
2018-08-22T04:45:13.525Z,4.80
2018-08-22T04:46:17.081Z,4.27
2018-08-22T04:47:20.549Z,4.30
2018-08-22T04:48:24.056Z,4.10
2018-08-22T04:49:27.492Z,4.73
2018-08-22T04:50:31.029Z,4.83
2018-08-22T04:51:34.512Z,4.07
2018-08-22T04:52:37.989Z,4.80
2018-08-22T04:53:41.469Z,4.40
2018-08-22T04:54:45.624Z,4.20
2018-08-22T04:55:49.181Z,4.13
2018-08-22T04:56:52.786Z,3.90
2018-08-22T04:57:56.248Z,4.37
2018-08-22T04:58:59.738Z,4.07
2018-08-22T05:00:03.293Z,4.00
2018-08-22T05:01:06.858Z,4.67
2018-08-22T05:02:10.317Z,4.47
2018-08-22T05:03:13.809Z,4.10
2018-08-22T05:04:17.269Z,4.50
2018-08-22T05:05:20.713Z,4.80
2018-08-22T05:06:24.267Z,3.97
2018-08-22T05:07:27.769Z,4.40
2018-08-22T05:08:31.346Z,4.50
2018-08-22T05:09:34.814Z,4.03
2018-08-22T05:10:38.301Z,4.87
2018-08-22T05:11:41.745Z,5.23
2018-08-22T05:12:45.301Z,4.33
2018-08-22T05:13:48.910Z,4.57
2018-08-22T05:14:52.469Z,4.67
2018-08-22T05:15:55.949Z,4.40
2018-08-22T05:16:59.410Z,4.30
2018-08-22T05:18:02.947Z,4.10
2018-08-22T05:19:06.390Z,4.07
2018-08-22T05:20:09.897Z,5.27
2018-08-22T05:21:13.390Z,4.00
2018-08-22T05:22:16.905Z,4.43
2018-08-22T05:23:20.388Z,4.70
2018-08-22T05:24:23.816Z,4.40
2018-08-22T05:25:27.345Z,4.17
2018-08-22T05:26:30.849Z,3.90
2018-08-22T05:27:34.335Z,4.37
2018-08-22T05:28:37.811Z,4.83
2018-08-22T05:29:41.828Z,4.70
2018-08-22T05:30:45.342Z,4.57
2018-08-22T05:31:48.890Z,5.10
2018-08-22T05:32:52.526Z,4.53
2018-08-22T05:33:56.014Z,4.57
2018-08-22T05:34:59.582Z,4.93
2018-08-22T05:36:03.162Z,4.50
2018-08-22T05:37:06.753Z,4.20
2018-08-22T05:38:10.855Z,4.60
2018-08-22T05:39:14.313Z,4.43
2018-08-22T05:40:17.833Z,4.33
2018-08-22T05:41:21.320Z,4.17
2018-08-22T05:42:24.772Z,3.90
2018-08-22T05:43:28.298Z,4.63
2018-08-22T05:44:31.736Z,4.20
2018-08-22T05:45:35.257Z,4.50
2018-08-22T05:46:38.746Z,4.67
2018-08-22T05:47:42.232Z,4.60
2018-08-22T05:48:45.681Z,5.00
2018-08-22T05:49:49.127Z,4.70
2018-08-22T05:50:52.715Z,4.57
2018-08-22T05:51:56.281Z,4.70
2018-08-22T05:52:59.773Z,4.30
2018-08-22T05:54:03.236Z,5.00
2018-08-22T05:55:06.761Z,4.67
2018-08-22T05:56:10.213Z,3.93
2018-08-22T05:57:13.688Z,4.60
2018-08-22T05:58:17.139Z,4.23
2018-08-22T05:59:20.628Z,4.23
2018-08-22T06:00:24.118Z,4.00
2018-08-22T06:01:27.669Z,4.93
2018-08-22T06:02:31.206Z,4.57
2018-08-22T06:03:34.764Z,4.13
2018-08-22T06:04:38.271Z,4.17
2018-08-22T06:05:41.725Z,3.77
2018-08-22T06:06:45.234Z,4.70
2018-08-22T06:07:48.698Z,4.30
2018-08-22T06:08:52.244Z,4.40
2018-08-22T06:09:55.802Z,3.93
2018-08-22T06:10:59.285Z,4.33
2018-08-22T06:12:02.743Z,4.93
2018-08-22T06:13:06.779Z,4.80
2018-08-22T06:14:10.281Z,4.70
2018-08-22T06:15:13.857Z,4.40
2018-08-22T06:16:17.368Z,4.67
2018-08-22T06:17:21.471Z,4.13
2018-08-22T06:18:25.025Z,4.40
2018-08-22T06:19:28.642Z,4.50
2018-08-22T06:20:32.237Z,4.30
2018-08-22T06:21:35.782Z,4.77
2018-08-22T06:22:39.274Z,4.23
2018-08-22T06:23:42.745Z,4.87
2018-08-22T06:24:46.234Z,4.93
2018-08-22T06:25:49.691Z,3.90
2018-08-22T06:26:53.230Z,4.70
2018-08-22T06:27:56.727Z,5.03
2018-08-22T06:29:00.245Z,4.80
2018-08-22T06:30:03.881Z,4.87
2018-08-22T06:31:07.400Z,4.70
2018-08-22T06:32:10.960Z,4.67
2018-08-22T06:33:14.556Z,4.30
2018-08-22T06:34:18.149Z,4.40
2018-08-22T06:35:21.665Z,4.30
2018-08-22T06:36:25.222Z,4.43
2018-08-22T06:37:28.629Z,3.93
2018-08-22T06:38:32.110Z,4.07
2018-08-22T06:39:36.220Z,4.97
2018-08-22T06:40:39.686Z,4.60
2018-08-22T06:41:43.210Z,4.40
2018-08-22T06:42:46.778Z,4.07
2018-08-22T06:43:50.234Z,4.60
2018-08-22T06:44:53.773Z,4.93
2018-08-22T06:45:57.268Z,3.87
2018-08-22T06:47:00.869Z,4.90
2018-08-22T06:48:05.039Z,4.00
2018-08-22T06:49:08.533Z,4.23
2018-08-22T06:50:12.035Z,4.53
2018-08-22T06:51:15.634Z,4.40
2018-08-22T06:52:19.207Z,4.37
2018-08-22T06:53:22.735Z,4.33
2018-08-22T06:54:26.279Z,4.63
2018-08-22T06:55:29.764Z,4.57
2018-08-22T06:56:33.265Z,4.73
2018-08-22T06:57:36.753Z,4.40
2018-08-22T06:58:40.189Z,4.73
2018-08-22T06:59:43.721Z,4.27
2018-08-22T07:00:47.197Z,4.67
2018-08-22T07:01:50.707Z,4.37
2018-08-22T07:02:54.200Z,4.50
2018-08-22T07:03:57.760Z,4.37
2018-08-22T07:05:01.249Z,3.93
2018-08-22T07:06:04.907Z,4.47
2018-08-22T07:07:08.451Z,4.70
2018-08-22T07:08:12.095Z,4.57
2018-08-22T07:09:15.645Z,4.90
2018-08-22T07:10:19.207Z,4.47
2018-08-22T07:11:22.650Z,4.43
2018-08-22T07:12:26.209Z,4.80
2018-08-22T07:13:29.791Z,4.10
2018-08-22T07:14:33.329Z,4.23
2018-08-22T07:15:36.838Z,4.57
2018-08-22T07:16:40.361Z,4.67
2018-08-22T07:17:43.863Z,4.50
2018-08-22T07:18:47.452Z,4.43
2018-08-22T07:19:51.014Z,4.67
2018-08-22T07:20:54.498Z,4.47
2018-08-22T07:21:58.428Z,4.13
2018-08-22T07:23:02.040Z,4.47
2018-08-22T07:24:05.582Z,5.33
2018-08-22T07:25:09.044Z,4.83
2018-08-22T07:26:12.525Z,4.63
2018-08-22T07:27:15.957Z,4.90
2018-08-22T07:28:19.441Z,4.87
2018-08-22T07:29:22.868Z,4.50
2018-08-22T07:30:26.380Z,5.47
2018-08-22T07:31:29.894Z,4.00
2018-08-22T07:32:33.483Z,4.97
2018-08-22T07:33:37.797Z,4.33
2018-08-22T07:34:41.253Z,4.33
2018-08-22T07:35:44.794Z,4.50
2018-08-22T07:36:48.336Z,4.60
2018-08-22T07:37:51.780Z,4.40
2018-08-22T07:38:55.382Z,4.40
2018-08-22T07:39:58.805Z,4.67
2018-08-22T07:41:02.265Z,4.63
2018-08-22T07:42:05.786Z,4.60
2018-08-22T07:43:09.292Z,4.67
2018-08-22T07:44:13.217Z,4.30
2018-08-22T07:45:16.766Z,4.40
2018-08-22T07:46:20.210Z,4.83
2018-08-22T07:47:23.825Z,4.53
2018-08-22T07:48:27.258Z,4.10
2018-08-22T07:49:30.833Z,4.33
2018-08-22T07:50:34.925Z,4.83
2018-08-22T07:51:38.390Z,5.10
2018-08-22T07:52:53.558Z,5.30
2018-08-22T07:53:57.041Z,3.83
2018-08-22T07:55:00.481Z,4.07
2018-08-22T07:56:03.962Z,3.87
2018-08-22T07:57:07.646Z,4.80
2018-08-22T07:58:11.321Z,4.10
2018-08-22T07:59:19.652Z,4.30
2018-08-22T08:00:23.222Z,3.90
2018-08-22T08:01:26.674Z,4.70
2018-08-22T08:02:30.113Z,5.30
2018-08-22T08:03:33.676Z,4.77
2018-08-22T08:04:37.243Z,4.50
2018-08-22T08:05:40.759Z,4.50
2018-08-22T08:06:44.235Z,4.63
2018-08-22T08:07:47.709Z,5.10
2018-08-22T08:08:51.446Z,4.73
2018-08-22T08:09:54.998Z,4.73
2018-08-22T08:10:58.491Z,4.63
2018-08-22T08:12:01.969Z,5.27
2018-08-22T08:13:14.209Z,4.90
2018-08-22T08:14:17.639Z,5.00
2018-08-22T08:15:21.152Z,5.60
2018-08-22T08:16:24.621Z,4.70
2018-08-22T08:17:28.125Z,5.03
2018-08-22T08:18:31.573Z,5.40
2018-08-22T08:19:35.001Z,4.87
2018-08-22T08:20:38.473Z,4.97
2018-08-22T08:21:41.918Z,3.83
2018-08-22T08:22:45.478Z,4.83
2018-08-22T08:23:48.962Z,4.80
2018-08-22T08:24:52.413Z,4.80
2018-08-22T08:25:55.922Z,4.90
2018-08-22T08:26:59.424Z,4.43
2018-08-22T08:28:03.572Z,5.23
2018-08-22T08:29:07.124Z,5.17
2018-08-22T08:30:10.581Z,4.70
2018-08-22T08:31:14.029Z,5.30
2018-08-22T08:32:17.600Z,5.40
2018-08-22T08:33:21.169Z,4.50
2018-08-22T08:34:24.632Z,5.20
2018-08-22T08:35:28.143Z,4.80
2018-08-22T08:36:31.754Z,4.57
2018-08-22T08:37:35.324Z,4.10
2018-08-22T08:38:38.941Z,5.23
2018-08-22T08:39:42.480Z,4.80
2018-08-22T08:40:45.988Z,4.60
2018-08-22T08:41:49.556Z,4.73
2018-08-22T08:42:53.011Z,4.27
2018-08-22T08:43:56.445Z,4.60
2018-08-22T08:45:00.046Z,4.70
2018-08-22T08:46:03.768Z,5.00
2018-08-22T08:47:07.322Z,4.77
2018-08-22T08:48:10.810Z,4.40
2018-08-22T08:49:14.305Z,4.63
2018-08-22T08:50:17.905Z,4.80
2018-08-22T08:51:21.588Z,4.73
2018-08-22T08:52:25.065Z,4.60
2018-08-22T08:53:28.719Z,4.37
2018-08-22T08:54:32.241Z,4.77
2018-08-22T08:55:35.950Z,4.90
2018-08-22T08:56:39.438Z,4.57
2018-08-22T08:57:42.951Z,4.60
2018-08-22T08:58:46.557Z,5.07
2018-08-22T08:59:49.998Z,5.43
2018-08-22T09:00:53.477Z,4.80
2018-08-22T09:01:56.982Z,5.20
2018-08-22T09:03:00.457Z,4.70
2018-08-22T09:04:03.975Z,4.50
2018-08-22T09:05:07.541Z,4.47
2018-08-22T09:06:11.033Z,4.93
2018-08-22T09:07:14.537Z,4.70
2018-08-22T09:08:18.000Z,5.30
2018-08-22T09:09:21.524Z,5.20
2018-08-22T09:10:25.086Z,4.80
2018-08-22T09:11:28.557Z,5.10
2018-08-22T09:12:32.016Z,5.07
2018-08-22T09:13:42.132Z,5.47
2018-08-22T09:14:45.609Z,4.97
2018-08-22T09:15:49.193Z,5.30
2018-08-22T09:16:52.632Z,5.47
2018-08-22T09:17:56.106Z,6.20
2018-08-22T09:18:59.629Z,5.40
2018-08-22T09:20:03.270Z,5.20
2018-08-22T09:21:06.971Z,5.60
2018-08-22T09:22:10.439Z,6.30
2018-08-22T09:23:14.010Z,7.53
2018-08-22T09:24:17.474Z,7.57
2018-08-22T09:25:20.946Z,6.17
2018-08-22T09:26:24.475Z,5.83
2018-08-22T09:27:27.947Z,6.43
2018-08-22T09:28:31.431Z,6.23
2018-08-22T09:29:34.986Z,5.07
2018-08-22T09:30:38.405Z,5.50
2018-08-22T09:31:41.883Z,5.40
2018-08-22T09:32:45.389Z,5.20
2018-08-22T09:33:48.850Z,5.67
2018-08-22T09:34:52.273Z,6.97
2018-08-22T09:35:55.726Z,6.10
2018-08-22T09:36:59.254Z,5.80
2018-08-22T09:38:02.717Z,5.80
2018-08-22T09:39:12.702Z,5.90
2018-08-22T09:40:16.269Z,6.10
2018-08-22T09:41:19.752Z,5.50
2018-08-22T09:42:23.200Z,5.97
2018-08-22T09:43:26.715Z,7.47
2018-08-22T09:44:30.210Z,5.00
2018-08-22T09:45:33.690Z,5.50
2018-08-22T09:46:38.300Z,7.53
2018-08-22T09:47:41.725Z,5.53
2018-08-22T09:48:45.197Z,6.80
2018-08-22T09:49:48.657Z,5.40
2018-08-22T09:50:52.208Z,6.53
2018-08-22T09:51:55.661Z,6.60
2018-08-22T09:52:59.113Z,5.60
2018-08-22T09:54:02.623Z,5.80
2018-08-22T09:55:07.258Z,5.40
2018-08-22T09:56:10.685Z,5.57
2018-08-22T09:57:14.229Z,6.30
2018-08-22T09:58:17.764Z,6.37
2018-08-22T09:59:21.281Z,5.77
2018-08-22T10:00:29.939Z,5.63
2018-08-22T10:01:38.738Z,6.23
2018-08-22T10:02:42.217Z,5.97
2018-08-22T10:03:53.602Z,5.80
2018-08-22T10:04:57.212Z,6.90
2018-08-22T10:06:00.756Z,6.00
2018-08-22T10:07:04.273Z,6.30
2018-08-22T10:08:07.849Z,6.20
2018-08-22T10:09:17.369Z,6.20
2018-08-22T10:10:20.870Z,7.40
2018-08-22T10:11:24.320Z,6.70
2018-08-22T10:12:27.823Z,6.97
2018-08-22T10:13:31.357Z,6.47
2018-08-22T10:14:34.910Z,6.47
2018-08-22T10:15:38.393Z,5.37
2018-08-22T10:16:41.845Z,6.20
2018-08-22T10:17:45.814Z,5.93
2018-08-22T10:18:49.305Z,5.83
2018-08-22T10:19:53.321Z,6.53
2018-08-22T10:20:56.858Z,6.10
2018-08-22T10:22:00.364Z,5.83
2018-08-22T10:23:03.971Z,7.73
2018-08-22T10:24:07.491Z,6.90
2018-08-22T10:25:11.705Z,6.50
2018-08-22T10:26:15.220Z,5.50
2018-08-22T10:27:18.665Z,5.70
2018-08-22T10:28:22.112Z,6.50
2018-08-22T10:29:25.604Z,7.10
2018-08-22T10:30:29.102Z,5.83
2018-08-22T10:31:32.661Z,6.33
2018-08-22T10:32:36.176Z,5.30
2018-08-22T10:33:40.157Z,5.50
2018-08-22T10:34:43.642Z,6.50
2018-08-22T10:35:47.179Z,6.27
2018-08-22T10:36:50.717Z,5.40
2018-08-22T10:37:54.158Z,6.20
2018-08-22T10:38:57.824Z,5.90
2018-08-22T10:40:01.417Z,5.43
2018-08-22T10:41:05.022Z,5.30
2018-08-22T10:42:08.938Z,5.50
2018-08-22T10:43:12.449Z,5.70
2018-08-22T10:44:15.891Z,5.87
2018-08-22T10:45:19.509Z,5.57
2018-08-22T10:46:23.687Z,5.57
2018-08-22T10:47:27.222Z,5.40
2018-08-22T10:48:30.705Z,5.80
2018-08-22T10:49:34.249Z,4.93
2018-08-22T10:50:37.754Z,5.67
2018-08-22T10:51:41.345Z,5.93
2018-08-22T10:52:44.792Z,5.40
2018-08-22T10:53:48.374Z,5.17
2018-08-22T10:54:51.861Z,5.00
2018-08-22T10:55:55.366Z,5.20
2018-08-22T10:56:58.934Z,6.00
2018-08-22T10:58:02.408Z,5.60
2018-08-22T10:59:05.909Z,5.57
2018-08-22T11:00:09.486Z,5.00
2018-08-22T11:01:12.949Z,4.90
2018-08-22T11:02:16.481Z,5.30
2018-08-22T11:03:19.936Z,4.80
2018-08-22T11:04:23.457Z,5.30
2018-08-22T11:05:26.938Z,5.03
2018-08-22T11:06:30.402Z,5.77
2018-08-22T11:07:33.978Z,5.50
2018-08-22T11:08:37.494Z,5.10
2018-08-22T11:09:41.506Z,5.43
2018-08-22T11:10:44.993Z,5.70
2018-08-22T11:11:48.485Z,5.70
2018-08-22T11:12:52.314Z,5.80
2018-08-22T11:13:55.872Z,6.50
2018-08-22T11:14:59.315Z,6.63
2018-08-22T11:16:02.775Z,7.10
2018-08-22T11:17:06.337Z,6.03
2018-08-22T11:18:09.912Z,6.87
2018-08-22T11:19:13.401Z,6.13
2018-08-22T11:20:16.894Z,7.30
2018-08-22T11:21:31.541Z,7.10
2018-08-22T11:22:46.146Z,7.77
2018-08-22T11:24:00.947Z,6.63
2018-08-22T11:25:15.658Z,7.00
2018-08-22T11:26:30.392Z,7.03
2018-08-22T11:27:45.237Z,7.13
2018-08-22T11:28:59.793Z,7.20
2018-08-22T11:30:14.415Z,6.90
2018-08-22T11:31:29.391Z,7.37
2018-08-22T11:32:44.268Z,7.10
2018-08-22T11:33:59.065Z,6.67
2018-08-22T11:35:01.293Z,6.60
2018-08-22T11:36:03.537Z,7.57
2018-08-22T11:37:08.937Z,7.20
2018-08-22T11:38:12.502Z,7.37
2018-08-22T11:39:16.004Z,7.80
2018-08-22T11:40:19.581Z,7.37
2018-08-22T11:41:23.074Z,7.37
2018-08-22T11:42:26.573Z,7.10
2018-08-22T11:43:30.153Z,7.70
2018-08-22T11:44:33.744Z,7.93
2018-08-22T11:45:37.230Z,6.93
2018-08-22T11:46:40.739Z,7.20
2018-08-22T11:47:44.211Z,6.90
2018-08-22T11:48:47.669Z,6.47
2018-08-22T11:49:52.314Z,6.50
2018-08-22T11:50:55.745Z,6.50
2018-08-22T11:51:59.720Z,6.90
2018-08-22T11:53:03.181Z,6.23
2018-08-22T11:54:06.711Z,5.57
2018-08-22T11:55:10.262Z,6.17
2018-08-22T11:56:14.236Z,5.60
2018-08-22T11:57:17.734Z,6.17
2018-08-22T11:58:21.173Z,7.27
2018-08-22T11:59:24.649Z,7.43
2018-08-22T12:00:28.201Z,6.10
2018-08-22T12:01:31.682Z,7.47
2018-08-22T12:02:35.174Z,7.47
2018-08-22T12:03:38.681Z,6.13
2018-08-22T12:04:42.164Z,7.03
2018-08-22T12:05:45.637Z,6.67
2018-08-22T12:06:49.578Z,6.80
2018-08-22T12:07:53.012Z,7.23
2018-08-22T12:08:56.496Z,7.23
2018-08-22T12:10:00.025Z,6.50
2018-08-22T12:11:03.509Z,6.93
2018-08-22T12:12:07.016Z,6.87
2018-08-22T12:13:10.556Z,6.70
2018-08-22T12:14:14.048Z,6.87
2018-08-22T12:15:17.502Z,6.53
2018-08-22T12:16:20.997Z,7.13
2018-08-22T12:17:24.526Z,6.00
2018-08-22T12:18:27.990Z,7.20
2018-08-22T12:19:31.591Z,6.40
2018-08-22T12:20:35.125Z,7.40
2018-08-22T12:21:39.128Z,7.67
2018-08-22T12:22:42.578Z,7.30
2018-08-22T12:23:46.087Z,6.50
2018-08-22T12:24:49.664Z,7.20
2018-08-22T12:25:53.144Z,6.40
2018-08-22T12:26:56.648Z,7.00
2018-08-22T12:28:00.081Z,7.47
2018-08-22T12:29:03.932Z,6.53
2018-08-22T12:30:07.412Z,7.27
2018-08-22T12:31:10.952Z,7.13
2018-08-22T12:32:14.522Z,6.10
2018-08-22T12:33:17.974Z,6.63
2018-08-22T12:34:22.053Z,5.87
2018-08-22T12:35:25.506Z,6.60
2018-08-22T12:36:29.869Z,7.10
2018-08-22T12:37:33.365Z,6.87
2018-08-22T12:38:36.808Z,7.40
2018-08-22T12:39:40.414Z,7.30
2018-08-22T12:40:44.109Z,7.70
2018-08-22T12:41:47.577Z,8.33
2018-08-22T12:42:51.077Z,7.40
2018-08-22T12:43:54.609Z,7.40
2018-08-22T12:44:58.202Z,8.10
2018-08-22T12:46:01.671Z,7.30
2018-08-22T12:47:05.115Z,7.60
2018-08-22T12:48:08.633Z,7.50
2018-08-22T12:49:12.131Z,6.93
2018-08-22T12:50:15.845Z,7.60
2018-08-22T12:51:19.324Z,7.00
2018-08-22T12:52:22.803Z,6.60
2018-08-22T12:53:26.519Z,7.03
2018-08-22T12:54:30.121Z,6.77
2018-08-22T12:55:33.566Z,6.57
2018-08-22T12:56:37.030Z,7.10
2018-08-22T12:57:40.552Z,7.60
2018-08-22T12:58:43.969Z,7.60
2018-08-22T12:59:47.625Z,6.80
2018-08-22T13:00:51.069Z,6.20
2018-08-22T13:01:54.586Z,6.70
2018-08-22T13:02:58.093Z,6.10
2018-08-22T13:04:01.617Z,6.80
2018-08-22T13:05:05.173Z,6.47
2018-08-22T13:06:08.656Z,6.63
2018-08-22T13:07:12.166Z,6.87
2018-08-22T13:08:15.633Z,7.03
2018-08-22T13:09:19.086Z,6.20
2018-08-22T13:10:22.600Z,6.60
2018-08-22T13:11:26.110Z,6.70
2018-08-22T13:12:30.498Z,7.40
2018-08-22T13:13:33.993Z,5.93
2018-08-22T13:14:37.439Z,6.43
2018-08-22T13:15:40.882Z,6.33
2018-08-22T13:16:44.304Z,6.73
2018-08-22T13:17:47.733Z,6.27
2018-08-22T13:18:51.178Z,6.03
2018-08-22T13:19:54.689Z,6.60
2018-08-22T13:20:58.185Z,7.07
2018-08-22T13:22:01.701Z,6.23
2018-08-22T13:23:05.488Z,6.97
2018-08-22T13:24:08.998Z,6.77
2018-08-22T13:25:12.448Z,6.67
2018-08-22T13:26:16.033Z,6.60
2018-08-22T13:27:19.473Z,6.20
2018-08-22T13:28:22.906Z,6.70
2018-08-22T13:29:26.402Z,6.90
2018-08-22T13:30:29.977Z,6.97
2018-08-22T13:31:33.522Z,5.70
2018-08-22T13:32:37.076Z,6.83
2018-08-22T13:33:40.518Z,6.63
2018-08-22T13:34:44.070Z,6.70
2018-08-22T13:35:47.584Z,6.40
2018-08-22T13:36:51.038Z,6.73
2018-08-22T13:37:54.469Z,6.47
2018-08-22T13:38:57.930Z,7.10
2018-08-22T13:40:01.393Z,6.33
2018-08-22T13:41:05.010Z,6.80
2018-08-22T13:42:08.619Z,6.70
2018-08-22T13:43:12.149Z,6.90
2018-08-22T13:44:15.657Z,5.63
2018-08-22T13:45:19.169Z,7.23
2018-08-22T13:46:22.737Z,7.40
2018-08-22T13:47:26.325Z,7.20
2018-08-22T13:48:29.815Z,6.80
2018-08-22T13:49:33.268Z,7.33
2018-08-22T13:50:36.711Z,7.07
2018-08-22T13:51:40.128Z,5.80
2018-08-22T13:52:43.579Z,6.13
2018-08-22T13:53:47.018Z,6.30
2018-08-22T13:54:51.081Z,6.30
2018-08-22T13:55:54.684Z,6.30
2018-08-22T13:56:58.204Z,6.30
2018-08-22T13:58:01.684Z,5.87
2018-08-22T13:59:05.181Z,5.97
2018-08-22T14:00:09.331Z,6.40
2018-08-22T14:01:12.901Z,5.60
2018-08-22T14:02:16.357Z,6.87
2018-08-22T14:03:19.863Z,5.97
2018-08-22T14:04:23.365Z,6.10
2018-08-22T14:05:26.845Z,6.33
2018-08-22T14:06:30.309Z,6.07
2018-08-22T14:07:33.788Z,6.17
2018-08-22T14:08:37.321Z,6.80